Time;durP1;ratioP1;P1;durP2;ratioP2;P2;SDS_P1;SDS_P2;PMS_P1;PMS_P2;Temp;Humidity;BMP_temperature;BMP_pressure;BME280_temperature;BME280_humidity;BME280_pressure;Samples;Min_cycle;Max_cycle;Signal;HPM_P1;HPM_P2
2022/07/21 00:03:21;;;;;;;20.08;18.15;;;;;18.00;101312.00;;;;10446748;28;20727;-82
2022/07/21 00:08:23;;;;;;;20.15;16.48;;;;;18.10;101307.00;;;;10436683;28;20194;-82
2022/07/21 00:13:25;;;;;;;17.98;16.20;;;;;18.20;101300.00;;;;10430619;28;20194;-82
2022/07/21 00:18:30;;;;;;;18.08;16.27;;;;;18.20;101296.00;;;;10465419;28;20208;-82
2022/07/21 00:23:32;;;;;;;19.38;13.70;;;;;18.30;101302.00;;;;10446498;28;20651;-82
2022/07/21 00:28:34;;;;;;;14.35;12.85;;;;;18.30;101294.00;;;;10463360;28;20190;-82
2022/07/21 00:33:36;;;;;;;16.02;12.25;;;;;18.30;101302.00;;;;10456780;28;20591;-82
2022/07/21 00:38:38;;;;;;;13.48;11.30;;;;;18.30;101302.00;;;;10479931;28;20198;-82
2022/07/21 00:43:46;;;;;;;12.43;11.13;;;;;18.30;101296.00;;;;10449096;28;20217;-83
2022/07/21 00:48:48;;;;;;;13.10;10.35;;;;;18.30;101301.00;;;;10440231;28;20197;-83
2022/07/21 00:53:51;;;;;;;11.05;9.85;;;;;18.30;101295.00;;;;10429325;28;20186;-82
2022/07/21 00:58:53;;;;;;;11.30;9.05;;;;;18.30;101294.00;;;;10431225;28;20214;-82
2022/07/21 01:03:56;;;;;;;11.88;9.55;;;;;18.30;101290.00;;;;10416429;28;20218;-83
2022/07/21 01:08:58;;;;;;;12.35;8.43;;;;;18.20;101287.00;;;;10432403;28;20220;-83
2022/07/21 01:14:01;;;;;;;12.35;8.75;;;;;18.20;101291.00;;;;10462826;28;20185;-83
2022/07/21 01:19:06;;;;;;;9.18;7.65;;;;;18.10;101286.00;;;;10428934;28;20887;-83
2022/07/21 01:24:08;;;;;;;10.52;8.30;;;;;18.10;101287.00;;;;10427781;28;20209;-83
2022/07/21 01:29:11;;;;;;;9.90;8.85;;;;;18.00;101290.00;;;;10428135;28;20204;-83
2022/07/21 01:34:14;;;;;;;11.00;8.00;;;;;18.00;101288.00;;;;10428554;28;20194;-83
2022/07/21 01:44:37;;;;;;;8.95;8.05;;;;;18.00;101298.00;;;;10442508;28;20216;-83
2022/07/21 01:49:39;;;;;;;13.43;9.25;;;;;18.00;101300.00;;;;10431034;28;20221;-83
2022/07/21 01:54:41;;;;;;;12.75;9.10;;;;;18.00;101296.00;;;;10460534;28;20720;-83
2022/07/21 01:59:43;;;;;;;13.45;9.35;;;;;18.00;101306.00;;;;10472507;28;20218;-82
2022/07/21 02:04:45;;;;;;;13.00;9.38;;;;;18.00;101301.00;;;;10453771;28;20198;-82
2022/07/21 02:09:47;;;;;;;11.98;8.27;;;;;18.10;101301.00;;;;10459827;28;20288;-83
2022/07/21 02:14:49;;;;;;;16.92;9.40;;;;;18.10;101297.00;;;;10462774;28;20217;-83
2022/07/21 02:19:51;;;;;;;13.18;8.05;;;;;18.10;101296.00;;;;10445763;28;20287;-83
2022/07/21 02:24:53;;;;;;;10.50;8.05;;;;;18.10;101293.00;;;;10461629;28;20205;-83
2022/07/21 02:29:55;;;;;;;10.88;7.90;;;;;18.20;101289.00;;;;10460542;28;20212;-83
2022/07/21 02:34:57;;;;;;;14.00;8.55;;;;;18.20;101294.00;;;;10442424;28;20288;-82
2022/07/21 02:39:59;;;;;;;12.57;8.05;;;;;18.20;101284.00;;;;10413112;28;20648;-83
2022/07/21 02:45:01;;;;;;;9.95;8.18;;;;;18.20;101276.00;;;;10459962;28;20572;-83
2022/07/21 02:50:03;;;;;;;14.77;8.25;;;;;18.20;101280.00;;;;10441178;28;20189;-83
2022/07/21 02:55:05;;;;;;;13.18;8.35;;;;;18.20;101275.00;;;;10475946;28;20273;-83
2022/07/21 03:00:10;;;;;;;11.18;8.82;;;;;18.20;101267.00;;;;10444270;28;20643;-82
2022/07/21 03:05:12;;;;;;;10.68;7.25;;;;;18.20;101267.00;;;;10431598;28;20214;-82
2022/07/21 03:10:13;;;;;;;10.25;7.88;;;;;18.20;101251.00;;;;10447442;28;20194;-82
2022/07/21 03:15:16;;;;;;;11.10;7.32;;;;;18.20;101250.00;;;;10449985;28;20197;-82
2022/07/21 03:20:17;;;;;;;18.67;7.53;;;;;18.10;101242.00;;;;10427029;28;20198;-82
2022/07/21 03:25:20;;;;;;;8.13;6.97;;;;;18.10;101249.00;;;;10426500;28;20210;-82
2022/07/21 03:30:22;;;;;;;13.65;7.22;;;;;18.00;101246.00;;;;10470778;28;20198;-82
2022/07/21 03:35:25;;;;;;;10.82;7.43;;;;;17.90;101235.00;;;;10396389;28;20252;-81
2022/07/21 03:40:30;;;;;;;12.43;7.35;;;;;17.80;101263.00;;;;10437137;28;20643;-82
2022/07/21 03:45:34;;;;;;;12.15;7.90;;;;;17.80;101255.00;;;;10447926;28;20679;-82
2022/07/21 03:50:38;;;;;;;9.38;7.32;;;;;17.80;101261.00;;;;10433509;28;20225;-82
2022/07/21 03:55:40;;;;;;;12.88;8.88;;;;;17.90;101268.00;;;;10460779;28;20735;-83
2022/07/21 04:00:44;;;;;;;14.15;10.10;;;;;18.00;101276.00;;;;10431857;28;20249;-82
2022/07/21 04:05:47;;;;;;;17.13;11.52;;;;;18.10;101280.00;;;;10480866;28;20304;-82
2022/07/21 04:10:49;;;;;;;18.67;12.18;;;;;18.10;101295.00;;;;10448269;28;20217;-82
2022/07/21 04:15:50;;;;;;;22.33;13.25;;;;;18.20;101288.00;;;;10448062;28;20182;-82
2022/07/21 04:20:53;;;;;;;16.08;11.98;;;;;18.30;101287.00;;;;10428216;28;20644;-82
2022/07/21 04:25:55;;;;;;;17.90;12.35;;;;;18.30;101293.00;;;;10443146;28;20572;-82
2022/07/21 04:30:57;;;;;;;16.58;13.50;;;;;18.40;101295.00;;;;10459431;28;20189;-82
2022/07/21 04:35:59;;;;;;;21.58;13.10;;;;;18.40;101280.00;;;;10447959;28;20207;-82
2022/07/21 04:41:01;;;;;;;18.45;13.93;;;;;18.40;101282.00;;;;10446328;28;20202;-82
2022/07/21 04:46:03;;;;;;;23.70;14.13;;;;;18.40;101286.00;;;;10454972;28;20672;-82
2022/07/21 04:51:05;;;;;;;20.73;14.18;;;;;18.40;101281.00;;;;10441782;28;20208;-82
2022/07/21 04:56:07;;;;;;;19.87;14.77;;;;;18.50;101282.00;;;;10442531;28;20186;-82
2022/07/21 05:01:09;;;;;;;22.05;15.32;;;;;18.70;101281.00;;;;10412287;28;20228;-82
2022/07/21 05:06:11;;;;;;;23.67;15.70;;;;;19.00;101282.00;;;;10461788;28;20676;-82
2022/07/21 05:11:14;;;;;;;22.58;16.33;;;;;19.20;101280.00;;;;10430546;28;20205;-82
2022/07/21 05:16:16;;;;;;;21.08;15.45;;;;;19.30;101280.00;;;;10443052;28;20194;-82
2022/07/21 05:21:18;;;;;;;18.75;15.25;;;;;19.50;101268.00;;;;10475710;28;20656;-82
2022/07/21 05:26:20;;;;;;;19.13;14.45;;;;;19.70;101275.00;;;;10429025;28;20201;-82
2022/07/21 05:31:22;;;;;;;18.52;13.60;;;;;19.70;101277.00;;;;10440019;28;20190;-82
2022/07/21 05:36:24;;;;;;;17.83;14.25;;;;;19.60;101278.00;;;;10403430;28;20191;-82
2022/07/21 05:41:26;;;;;;;16.27;12.18;;;;;19.30;101276.00;;;;10454187;28;20759;-82
2022/07/21 05:46:28;;;;;;;16.30;13.43;;;;;19.10;101283.00;;;;10427206;28;20220;-82
2022/07/21 05:51:30;;;;;;;19.00;14.18;;;;;19.00;101292.00;;;;10421709;28;22165;-82
2022/07/21 05:56:32;;;;;;;18.77;14.27;;;;;18.80;101289.00;;;;10404122;28;1111472;-82
2022/07/21 06:01:34;;;;;;;20.75;15.40;;;;;18.70;101299.00;;;;10406309;28;20221;-82
2022/07/21 06:06:36;;;;;;;19.58;16.77;;;;;18.70;101297.00;;;;10458793;28;20248;-82
2022/07/21 06:11:38;;;;;;;23.55;17.60;;;;;18.60;101305.00;;;;10427732;28;20197;-82
2022/07/21 06:16:40;;;;;;;24.48;18.60;;;;;18.50;101305.00;;;;10430859;28;20190;-83
2022/07/21 06:21:42;;;;;;;22.17;17.52;;;;;18.50;101308.00;;;;10460953;28;20227;-83
2022/07/21 06:26:48;;;;;;;25.85;19.77;;;;;18.60;101313.00;;;;10443093;28;20376;-82
2022/07/21 06:31:50;;;;;;;25.75;19.77;;;;;18.40;101318.00;;;;10431178;28;21424;-83
2022/07/21 06:36:52;;;;;;;29.23;20.02;;;;;18.30;101328.00;;;;10441440;28;20236;-83
2022/07/21 06:41:54;;;;;;;30.88;20.13;;;;;18.30;101328.00;;;;10408883;28;20197;-82
2022/07/21 06:46:57;;;;;;;27.65;20.08;;;;;18.30;101334.00;;;;10450400;28;20312;-82
2022/07/21 06:51:59;;;;;;;28.60;21.17;;;;;18.20;101350.00;;;;10462838;28;20185;-82
2022/07/21 06:57:01;;;;;;;27.13;20.10;;;;;18.20;101349.00;;;;10440777;28;20198;-82
2022/07/21 07:02:03;;;;;;;33.05;20.85;;;;;18.00;101356.00;;;;10433254;28;20237;-82
2022/07/21 07:07:05;;;;;;;31.13;22.10;;;;;18.00;101346.00;;;;10443695;28;20228;-81
2022/07/21 07:12:08;;;;;;;30.77;22.55;;;;;18.00;101352.00;;;;10466357;28;20190;-79
2022/07/21 07:17:30;;;;;;;32.83;23.33;;;;;17.90;101356.00;;;;10467279;28;20190;-80
2022/07/21 07:22:33;;;;;;;40.03;26.98;;;;;17.90;101364.00;;;;10461687;28;20198;-79
2022/07/21 07:27:36;;;;;;;49.50;31.85;;;;;17.90;101356.00;;;;10425522;28;20219;-79
2022/07/21 07:32:39;;;;;;;53.97;32.90;;;;;18.00;101362.00;;;;10464922;28;20743;-79
2022/07/21 07:37:44;;;;;;;57.30;35.25;;;;;18.00;101352.00;;;;10461746;28;20725;-79
2022/07/21 07:42:46;;;;;;;55.45;34.65;;;;;18.10;101361.00;;;;10437029;28;20254;-80
2022/07/21 07:47:49;;;;;;;59.08;36.05;;;;;18.10;101365.00;;;;10421900;28;20240;-80
2022/07/21 07:52:51;;;;;;;58.47;36.90;;;;;18.00;101367.00;;;;10472730;28;20197;-80
2022/07/21 07:57:52;;;;;;;64.57;36.53;;;;;18.10;101372.00;;;;10439383;28;20202;-80
2022/07/21 08:02:55;;;;;;;59.95;34.47;;;;;18.10;101368.00;;;;10463001;28;20258;-80
2022/07/21 08:07:57;;;;;;;55.58;35.03;;;;;18.20;101377.00;;;;10455786;28;20262;-79
2022/07/21 08:12:59;;;;;;;52.65;32.80;;;;;18.20;101380.00;;;;10444770;28;20194;-80
2022/07/21 08:18:07;;;;;;;59.60;34.63;;;;;18.40;101378.00;;;;10437087;28;20833;-79
2022/07/21 08:23:11;;;;;;;47.03;30.38;;;;;18.40;101373.00;;;;10429408;28;20207;-79
2022/07/21 08:28:13;;;;;;;45.75;30.45;;;;;18.40;101378.00;;;;10427100;28;20225;-80
2022/07/21 08:33:15;;;;;;;45.42;29.73;;;;;18.40;101393.00;;;;10410404;28;20237;-79
2022/07/21 08:38:19;;;;;;;38.33;26.15;;;;;18.50;101386.00;;;;10426545;28;20193;-79
2022/07/21 08:43:24;;;;;;;37.67;26.08;;;;;18.40;101394.00;;;;10422189;28;20205;-79
2022/07/21 08:48:27;;;;;;;36.35;24.90;;;;;18.50;101403.00;;;;10437338;28;20185;-79
2022/07/21 08:53:29;;;;;;;32.60;23.40;;;;;18.50;101404.00;;;;10453611;28;20217;-79
2022/07/21 08:58:31;;;;;;;31.85;21.70;;;;;18.60;101397.00;;;;10448372;28;20198;-79
2022/07/21 09:03:33;;;;;;;33.13;22.13;;;;;18.90;101393.00;;;;10446035;28;20217;-79
2022/07/21 09:08:50;;;;;;;28.45;20.88;;;;;19.00;101406.00;;;;10473047;28;20201;-78
2022/07/21 09:14:11;;;;;;;25.65;20.13;;;;;18.70;101409.00;;;;10449474;28;20181;-79
2022/07/21 09:19:21;;;;;;;24.33;18.02;;;;;18.40;101409.00;;;;10424989;28;20204;-78
2022/07/21 09:24:51;;;;;;;23.10;17.02;;;;;18.20;101404.00;;;;10467167;28;20214;-80
2022/07/21 09:29:59;;;;;;;14.35;12.85;;;;;18.30;101418.00;;;;10453974;28;20206;-80
2022/07/21 09:35:04;;;;;;;13.48;9.32;;;;;18.30;101425.00;;;;10426656;28;20202;-80
2022/07/21 09:40:11;;;;;;;17.55;10.77;;;;;18.00;101433.00;;;;10436510;28;20214;-78
2022/07/21 09:45:16;;;;;;;12.73;10.40;;;;;18.20;101435.00;;;;10433329;28;20232;-79
2022/07/21 09:50:19;;;;;;;12.90;10.35;;;;;18.20;101440.00;;;;10462825;28;20296;-78
2022/07/21 09:55:31;;;;;;;10.52;8.27;;;;;18.40;101437.00;;;;10452473;28;20213;-79
2022/07/21 10:00:33;;;;;;;11.88;7.15;;;;;18.30;101440.00;;;;10428470;28;20228;-80
2022/07/21 10:05:46;;;;;;;9.63;7.35;;;;;18.10;101454.00;;;;10462130;28;20201;-79
2022/07/21 10:10:48;;;;;;;10.25;8.05;;;;;18.40;101440.00;;;;10425729;28;20203;-78
2022/07/21 10:16:12;;;;;;;11.63;9.25;;;;;18.70;101455.00;;;;10476425;28;20265;-78
2022/07/21 10:21:32;;;;;;;14.80;10.23;;;;;18.60;101464.00;;;;10452459;28;20202;-78
2022/07/21 10:26:34;;;;;;;15.68;10.63;;;;;18.70;101464.00;;;;10445364;28;20231;-78
2022/07/21 10:31:42;;;;;;;19.70;11.63;;;;;19.60;101464.00;;;;10421008;28;20225;-78
2022/07/21 10:36:45;;;;;;;17.02;11.23;;;;;19.90;101476.00;;;;10407407;28;20276;-78
2022/07/21 10:41:55;;;;;;;14.98;10.90;;;;;20.40;101475.00;;;;10456635;28;20193;-78
2022/07/21 10:47:30;;;;;;;14.23;10.32;;;;;20.00;101481.00;;;;10472243;28;20201;-79
2022/07/21 10:52:41;;;;;;;19.83;11.35;;;;;20.30;101485.00;;;;10433307;28;20199;-79
2022/07/21 10:57:45;;;;;;;15.27;10.95;;;;;21.10;101488.00;;;;10434125;28;20197;-78
2022/07/21 11:02:52;;;;;;;13.70;9.90;;;;;21.70;101486.00;;;;10436807;28;20217;-79
2022/07/21 11:08:16;;;;;;;18.42;10.18;;;;;21.70;101487.00;;;;10417418;28;20202;-79
2022/07/21 11:13:25;;;;;;;13.27;10.18;;;;;21.60;101486.00;;;;10444214;28;20668;-79
2022/07/21 11:18:31;;;;;;;14.07;9.35;;;;;21.60;101497.00;;;;10459835;28;20330;-77
2022/07/21 11:23:41;;;;;;;13.98;9.27;;;;;20.40;101509.00;;;;10449954;28;20204;-79
2022/07/21 11:28:44;;;;;;;12.88;9.43;;;;;19.60;101516.00;;;;10453405;28;20186;-79
2022/07/21 11:33:48;;;;;;;10.80;8.18;;;;;19.20;101510.00;;;;10463153;28;20412;-79
2022/07/21 11:39:13;;;;;;;11.90;8.25;;;;;18.90;101517.00;;;;10494411;28;20599;-79
2022/07/21 11:44:24;;;;;;;9.38;6.80;;;;;18.80;101519.00;;;;10442951;28;20292;-79
2022/07/21 11:49:26;;;;;;;9.95;6.30;;;;;18.70;101521.00;;;;10441397;28;20201;-78
2022/07/21 11:54:37;;;;;;;10.80;5.82;;;;;19.40;101508.00;;;;10470396;28;20182;-78
2022/07/21 11:59:43;;;;;;;8.68;6.25;;;;;20.50;101516.00;;;;10449837;28;20251;-78
2022/07/21 12:04:58;;;;;;;10.75;6.53;;;;;20.60;101525.00;;;;10437654;28;20683;-79
2022/07/21 12:10:13;;;;;;;7.80;5.60;;;;;20.00;101520.00;;;;10455124;28;20224;-79
2022/07/21 12:15:27;;;;;;;9.43;5.95;;;;;19.80;101520.00;;;;10486802;28;20308;-78
2022/07/21 12:20:35;;;;;;;9.27;5.40;;;;;19.30;101539.00;;;;10473377;28;20232;-79
2022/07/21 12:25:39;;;;;;;8.20;5.63;;;;;19.40;101534.00;;;;10432321;28;20209;-79
2022/07/21 12:30:49;;;;;;;9.85;5.88;;;;;19.60;101527.00;;;;10457306;28;20277;-79
2022/07/21 12:36:05;;;;;;;7.82;5.22;;;;;19.70;101552.00;;;;10444747;28;20193;-78
2022/07/21 12:41:17;;;;;;;7.28;5.00;;;;;19.30;101551.00;;;;10457174;28;20198;-79
2022/07/21 12:46:33;;;;;;;8.02;4.32;;;;;19.00;101555.00;;;;10422137;28;20228;-79
2022/07/21 12:51:37;;;;;;;9.93;4.28;;;;;19.10;101550.00;;;;10474981;28;20292;-79
2022/07/21 12:56:39;;;;;;;7.70;4.97;;;;;18.90;101559.00;;;;10456460;28;20210;-79
2022/07/21 13:01:41;;;;;;;8.95;6.05;;;;;18.60;101565.00;;;;10450780;28;20222;-79
2022/07/21 13:06:43;;;;;;;11.95;6.85;;;;;18.80;101569.00;;;;10471139;28;20210;-79
2022/07/21 13:11:46;;;;;;;15.38;7.53;;;;;20.90;101562.00;;;;10456152;28;20204;-79
2022/07/21 13:16:49;;;;;;;11.18;7.10;;;;;21.30;101574.00;;;;10443473;28;20201;-78
2022/07/21 13:21:51;;;;;;;14.02;7.30;;;;;20.60;101572.00;;;;10428916;28;20192;-79
2022/07/21 13:26:53;;;;;;;10.93;6.85;;;;;20.20;101576.00;;;;10436645;28;20251;-79
2022/07/21 13:31:55;;;;;;;16.92;7.47;;;;;19.90;101580.00;;;;10448739;28;20247;-78
2022/07/21 13:36:57;;;;;;;9.65;6.10;;;;;19.50;101579.00;;;;10436960;28;20202;-78
2022/07/21 13:41:59;;;;;;;14.52;7.35;;;;;19.30;101593.00;;;;10429186;28;20202;-78
2022/07/21 13:47:21;;;;;;;8.52;6.97;;;;;19.10;101594.00;;;;10452893;28;20208;-78
2022/07/21 13:52:23;;;;;;;21.83;10.07;;;;;19.10;101586.00;;;;10420110;28;20221;-78
2022/07/21 13:57:25;;;;;;;15.68;10.45;;;;;19.50;101580.00;;;;10393728;28;20209;-78
2022/07/21 14:02:27;;;;;;;15.98;11.00;;;;;20.50;101578.00;;;;10412783;28;20217;-78
2022/07/21 14:07:30;;;;;;;12.98;7.78;;;;;21.10;101584.00;;;;10409882;28;20246;-78
2022/07/21 14:12:32;;;;;;;17.20;8.02;;;;;21.10;101598.00;;;;10419074;28;20194;-78
2022/07/21 14:17:39;;;;;;;12.15;8.40;;;;;20.60;101598.00;;;;10444839;28;20660;-78
2022/07/21 14:22:41;;;;;;;11.95;6.97;;;;;20.30;101596.00;;;;10418486;28;20199;-78
2022/07/21 14:27:44;;;;;;;15.43;7.50;;;;;19.70;101614.00;;;;10436753;28;20681;-78
2022/07/21 14:32:48;;;;;;;12.80;6.63;;;;;19.00;101617.00;;;;10449361;28;20198;-78
2022/07/21 14:37:50;;;;;;;16.67;8.02;;;;;18.80;101622.00;;;;10417781;28;20186;-78
2022/07/21 14:42:52;;;;;;;19.33;8.07;;;;;18.60;101627.00;;;;10443786;28;20202;-78
2022/07/21 14:47:56;;;;;;;12.55;6.05;;;;;18.50;101637.00;;;;10429636;28;20197;-78
2022/07/21 14:52:58;;;;;;;21.33;12.45;;;;;18.40;101636.00;;;;10443284;28;20683;-78
2022/07/21 14:58:00;;;;;;;31.38;12.98;;;;;19.00;101633.00;;;;10496482;28;20596;-77
2022/07/21 15:03:02;;;;;;;19.85;12.60;;;;;20.70;101642.00;;;;10437234;28;20267;-77
2022/07/21 15:08:04;;;;;;;13.95;10.02;;;;;21.30;101646.00;;;;10448037;28;20212;-77
2022/07/21 15:13:14;;;;;;;16.40;9.52;;;;;20.10;101636.00;;;;10448105;28;20200;-77
2022/07/21 15:18:17;;;;;;;14.10;6.88;;;;;19.60;101638.00;;;;10446074;28;20193;-77
2022/07/21 15:23:19;;;;;;;17.38;5.45;;;;;19.80;101640.00;;;;10435278;28;20226;-77
2022/07/21 15:28:21;;;;;;;11.23;5.30;;;;;19.70;101637.00;;;;10477351;28;20205;-77
2022/07/21 15:33:23;;;;;;;10.43;5.07;;;;;20.90;101628.00;;;;10448728;28;20362;-77
2022/07/21 15:38:25;;;;;;;13.10;5.40;;;;;21.90;101638.00;;;;10456204;28;20192;-76
2022/07/21 15:43:27;;;;;;;9.35;4.03;;;;;21.90;101644.00;;;;10445467;28;20194;-77
2022/07/21 15:48:29;;;;;;;9.07;4.88;;;;;21.70;101642.00;;;;10452170;28;20573;-76
2022/07/21 15:53:31;;;;;;;11.90;4.60;;;;;21.30;101643.00;;;;10467553;28;20276;-77
2022/07/21 15:58:33;;;;;;;12.05;4.78;;;;;20.80;101651.00;;;;10441008;28;20248;-77
2022/07/21 16:03:36;;;;;;;11.98;4.97;;;;;20.50;101652.00;;;;10444752;28;20209;-75
2022/07/21 16:08:38;;;;;;;10.63;4.50;;;;;20.60;101652.00;;;;10423255;28;20241;-76
2022/07/21 16:13:40;;;;;;;13.45;4.80;;;;;20.20;101645.00;;;;10457326;28;20198;-77
2022/07/21 16:18:42;;;;;;;10.23;5.20;;;;;19.70;101656.00;;;;10405372;28;20288;-77
2022/07/21 16:23:45;;;;;;;10.25;4.68;;;;;19.20;101658.00;;;;10458981;28;20186;-77
2022/07/21 16:28:47;;;;;;;16.42;5.72;;;;;19.00;101662.00;;;;10459862;28;20222;-77
2022/07/21 16:33:50;;;;;;;10.65;4.65;;;;;19.30;101654.00;;;;10443086;28;20198;-77
2022/07/21 16:38:53;;;;;;;13.40;5.60;;;;;19.70;101641.00;;;;10410949;28;20190;-77
2022/07/21 16:43:55;;;;;;;10.50;5.40;;;;;19.90;101635.00;;;;10441709;28;20642;-77
2022/07/21 16:48:58;;;;;;;9.63;4.47;;;;;19.90;101645.00;;;;10426819;28;20213;-77
2022/07/21 16:54:00;;;;;;;18.48;5.35;;;;;19.70;101649.00;;;;10422401;28;20197;-77
2022/07/21 16:59:03;;;;;;;19.42;5.88;;;;;19.40;101650.00;;;;10425834;28;20248;-77
2022/07/21 17:04:05;;;;;;;11.07;4.30;;;;;19.40;101643.00;;;;10442641;28;20224;-77
2022/07/21 17:09:07;;;;;;;11.88;4.78;;;;;19.70;101647.00;;;;10465549;28;20213;-77
2022/07/21 17:14:10;;;;;;;15.00;6.22;;;;;19.40;101653.00;;;;10433686;28;20206;-77
2022/07/21 17:19:12;;;;;;;14.57;6.50;;;;;19.10;101648.00;;;;10466965;28;20185;-77
2022/07/21 17:24:14;;;;;;;17.17;7.35;;;;;19.00;101651.00;;;;10436546;28;20190;-78
2022/07/21 17:29:16;;;;;;;13.43;6.30;;;;;18.90;101637.00;;;;10457756;28;20201;-78
2022/07/21 17:34:19;;;;;;;17.17;6.88;;;;;19.00;101644.00;;;;10459369;28;20201;-78
2022/07/21 17:39:21;;;;;;;14.13;6.47;;;;;19.00;101650.00;;;;10439135;28;20293;-78
2022/07/21 17:44:23;;;;;;;18.15;7.00;;;;;19.00;101645.00;;;;10425026;28;20699;-77
2022/07/21 17:49:25;;;;;;;17.17;6.43;;;;;18.90;101648.00;;;;10437597;28;20345;-77
2022/07/21 17:54:27;;;;;;;15.05;6.15;;;;;18.90;101662.00;;;;10441573;28;20592;-78
2022/07/21 17:59:29;;;;;;;18.23;5.60;;;;;18.90;101662.00;;;;10424135;28;20253;-78
2022/07/21 18:04:31;;;;;;;9.60;3.92;;;;;18.90;101663.00;;;;10450998;28;20715;-78
2022/07/21 18:09:34;;;;;;;15.07;4.68;;;;;18.80;101662.00;;;;10390232;28;20213;-78
2022/07/21 18:14:36;;;;;;;17.50;4.00;;;;;18.70;101662.00;;;;10438334;28;20204;-78
2022/07/21 18:19:38;;;;;;;11.55;3.53;;;;;18.60;101665.00;;;;10439296;28;20232;-77
2022/07/21 18:24:41;;;;;;;16.00;4.07;;;;;18.40;101676.00;;;;10426266;28;20205;-77
2022/07/21 18:29:43;;;;;;;13.95;4.63;;;;;18.30;101673.00;;;;10427931;28;20206;-77
2022/07/21 18:34:45;;;;;;;13.93;3.88;;;;;18.20;101664.00;;;;10437171;28;20221;-78
2022/07/21 18:39:47;;;;;;;7.72;3.25;;;;;18.20;101668.00;;;;10437949;28;20194;-79
2022/07/21 18:44:49;;;;;;;8.93;3.83;;;;;18.10;101682.00;;;;10443398;28;20653;-79
2022/07/21 18:49:52;;;;;;;11.40;3.65;;;;;18.00;101678.00;;;;10449186;28;20276;-79
2022/07/21 18:54:53;;;;;;;12.68;4.22;;;;;18.00;101681.00;;;;10428352;28;20661;-78
2022/07/21 18:59:59;;;;;;;14.93;4.07;;;;;18.00;101678.00;;;;10431157;28;20240;-78
2022/07/21 19:05:02;;;;;;;17.20;4.47;;;;;18.00;101678.00;;;;10414365;28;20224;-79
2022/07/21 19:10:05;;;;;;;14.82;3.47;;;;;18.00;101679.00;;;;10444338;28;20718;-78
2022/07/21 19:15:08;;;;;;;15.95;4.90;;;;;17.90;101685.00;;;;10449317;28;20560;-78
2022/07/21 19:20:17;;;;;;;10.13;4.07;;;;;17.90;101689.00;;;;10447262;28;20187;-78
2022/07/21 19:25:19;;;;;;;13.50;4.07;;;;;17.90;101691.00;;;;10427201;28;20736;-79
2022/07/21 19:30:23;;;;;;;16.10;3.92;;;;;17.80;101696.00;;;;10437799;28;20197;-78
2022/07/21 19:35:27;;;;;;;10.35;3.95;;;;;17.70;101706.00;;;;10413811;28;20178;-79
2022/07/21 19:40:29;;;;;;;10.98;3.70;;;;;17.50;101709.00;;;;10445977;28;20665;-78
2022/07/21 19:45:33;;;;;;;9.63;3.60;;;;;17.30;101708.00;;;;10444106;28;20271;-79
2022/07/21 19:50:35;;;;;;;14.05;4.78;;;;;17.20;101706.00;;;;10450165;28;20209;-79
2022/07/21 19:55:37;;;;;;;10.10;4.07;;;;;17.20;101718.00;;;;10426172;28;20707;-79
2022/07/21 20:00:39;;;;;;;13.82;4.75;;;;;17.20;101722.00;;;;10443444;28;20561;-79
2022/07/21 20:05:41;;;;;;;17.92;4.38;;;;;17.20;101719.00;;;;10422059;28;20219;-79
2022/07/21 20:10:43;;;;;;;15.00;4.13;;;;;17.10;101725.00;;;;10431522;28;20657;-79
2022/07/21 20:15:46;;;;;;;13.90;4.70;;;;;17.20;101726.00;;;;10444234;28;20186;-79
2022/07/21 20:20:49;;;;;;;12.32;4.30;;;;;17.10;101723.00;;;;10446107;28;20277;-79
2022/07/21 20:25:51;;;;;;;12.98;4.10;;;;;17.10;101723.00;;;;10417782;28;20301;-79
2022/07/21 20:31:13;;;;;;;12.38;4.53;;;;;17.10;101727.00;;;;10415156;28;20632;-79
2022/07/21 20:36:15;;;;;;;13.07;4.38;;;;;17.00;101718.00;;;;10426387;28;20259;-79
2022/07/21 20:41:18;;;;;;;10.75;3.90;;;;;17.00;101721.00;;;;10414485;28;20561;-80
2022/07/21 20:46:20;;;;;;;10.82;4.10;;;;;17.00;101721.00;;;;10423919;28;20259;-79
2022/07/21 20:51:22;;;;;;;14.93;4.55;;;;;17.00;101717.00;;;;10423816;28;20196;-79
2022/07/21 20:56:24;;;;;;;18.60;4.72;;;;;17.00;101715.00;;;;10439543;28;20232;-79
2022/07/21 21:01:46;;;;;;;14.38;4.95;;;;;17.00;101720.00;;;;10448305;28;20241;-79
2022/07/21 21:06:48;;;;;;;20.48;4.43;;;;;17.00;101720.00;;;;10469489;28;20668;-79
2022/07/21 21:11:50;;;;;;;17.65;4.47;;;;;16.90;101708.00;;;;10446832;28;20273;-80
2022/07/21 21:16:52;;;;;;;12.73;3.90;;;;;16.90;101709.00;;;;10443305;28;20284;-79
2022/07/21 21:21:54;;;;;;;17.10;5.22;;;;;16.80;101719.00;;;;10431662;28;20251;-79
2022/07/21 21:26:56;;;;;;;14.02;4.45;;;;;16.80;101720.00;;;;10420831;28;20681;-79
2022/07/21 21:31:58;;;;;;;16.13;4.18;;;;;16.80;101716.00;;;;10428529;28;20225;-78
2022/07/21 21:37:00;;;;;;;10.90;4.50;;;;;16.70;101716.00;;;;10442022;28;20261;-79
2022/07/21 21:42:05;;;;;;;19.05;5.22;;;;;16.60;101710.00;;;;10446980;28;20201;-79
2022/07/21 21:47:07;;;;;;;10.27;4.05;;;;;16.50;101705.00;;;;10444372;28;20213;-79
2022/07/21 21:52:15;;;;;;;15.15;5.03;;;;;16.40;101710.00;;;;10439350;28;20193;-79
2022/07/21 21:57:17;;;;;;;14.27;4.43;;;;;16.40;101709.00;;;;10460269;28;20193;-79
2022/07/21 22:02:19;;;;;;;15.00;4.95;;;;;16.40;101715.00;;;;10432110;28;20217;-79
2022/07/21 22:07:21;;;;;;;22.43;4.70;;;;;16.40;101713.00;;;;10423217;28;20747;-79
2022/07/21 22:12:23;;;;;;;16.53;5.17;;;;;16.40;101712.00;;;;10440239;28;20198;-79
2022/07/21 22:17:25;;;;;;;14.47;4.63;;;;;16.40;101713.00;;;;10442312;28;20580;-79
2022/07/21 22:22:32;;;;;;;14.70;4.50;;;;;16.40;101714.00;;;;10458615;28;20201;-79
2022/07/21 22:27:34;;;;;;;13.00;4.77;;;;;16.40;101702.00;;;;10440221;28;20201;-79
2022/07/21 22:32:36;;;;;;;9.13;4.00;;;;;16.20;101715.00;;;;10442649;28;20276;-79
2022/07/21 22:37:38;;;;;;;12.63;4.93;;;;;16.00;101715.00;;;;10458089;28;20190;-79
2022/07/21 22:42:40;;;;;;;16.83;4.83;;;;;15.80;101699.00;;;;10437415;28;20557;-79
2022/07/21 22:47:42;;;;;;;11.80;4.43;;;;;15.60;101706.00;;;;10442877;28;20210;-79
2022/07/21 22:52:44;;;;;;;16.73;4.97;;;;;15.40;101708.00;;;;10431726;28;20256;-79
2022/07/21 22:57:46;;;;;;;17.63;5.63;;;;;15.30;101707.00;;;;10458912;28;20209;-79
2022/07/21 23:02:48;;;;;;;16.90;6.17;;;;;15.30;101703.00;;;;10440532;28;20215;-79
2022/07/21 23:07:51;;;;;;;15.90;5.60;;;;;15.30;101703.00;;;;10455443;28;20217;-79
2022/07/21 23:12:53;;;;;;;18.97;5.10;;;;;15.30;101688.00;;;;10423248;28;20248;-79
2022/07/21 23:17:55;;;;;;;13.70;5.30;;;;;15.20;101688.00;;;;10443251;28;20228;-79
2022/07/21 23:22:57;;;;;;;18.07;5.30;;;;;15.10;101682.00;;;;10447677;28;20193;-79
2022/07/21 23:28:00;;;;;;;13.70;4.27;;;;;15.00;101675.00;;;;10429489;28;20206;-79
2022/07/21 23:33:02;;;;;;;13.30;4.60;;;;;14.90;101673.00;;;;10444432;28;20198;-79
2022/07/21 23:38:06;;;;;;;13.93;4.50;;;;;14.80;101674.00;;;;10446216;28;20209;-79
2022/07/21 23:43:08;;;;;;;12.97;4.57;;;;;14.60;101674.00;;;;10464194;28;20185;-79
2022/07/21 23:48:10;;;;;;;13.67;4.77;;;;;14.50;101678.00;;;;10428704;28;20210;-79
2022/07/21 23:53:12;;;;;;;7.80;3.90;;;;;14.40;101676.00;;;;10457579;28;20194;-79
2022/07/21 23:58:14;;;;;;;14.37;4.80;;;;;14.20;101680.00;;;;10438569;28;20218;-78
